KUIN/UIN METAR and TAF weather

Enter ICAO airport designator
Station Type Date Time Source
KUIN METAR 2021/09/16 10:54 UTC NOAA

KUIN 161054Z AUTO 13006KT 10SM CLR 13/10 A3004 RMK AO2 SLP167 T01330100


Station Type Date Time Source
KUIN Decoded METAR 2021/09/16 10:54 UTC NOAA

QUINCY MUNI. BALDWIN FIELD, IL, United States (KUIN) 39-56N 091-12W
Sep 16, 2021 - 06:54 AM EDT / 2021.09.16 1054 UTC
Wind: from the SE (130 degrees) at 7 MPH (6 KT):0
Visibility: 10 mile(s):0
Sky conditions: clear
Temperature: 55.9 F (13.3 C)
Dew Point: 50.0 F (10.0 C)
Relative Humidity: 80%
Pressure (altimeter): 30.04 in. Hg (1017 hPa)
ob: KUIN 161054Z AUTO 13006KT 10SM CLR 13/10 A3004 RMK AO2 SLP167 T01330100
cycle: 11

Station Type Date Time Source
KUIN TAF 2021/09/16 06:22 UTC NOAA

TAF KUIN 160520Z 1606/1706 13005KT P6SM SKC

Example: see airport list